createdAt,value
2023-04-07T00:02:13.923Z,97607.19
2023-04-07T00:04:41.473Z,97605.38
2023-04-07T00:07:09.144Z,97606.19
2023-04-07T00:09:37.055Z,97604.34
2023-04-07T00:12:04.868Z,97605.69
2023-04-07T00:14:32.374Z,97605.03
2023-04-07T00:16:59.915Z,97596.69
2023-04-07T00:19:27.420Z,97599.19
2023-04-07T00:21:54.900Z,97605.03
2023-04-07T00:24:33.371Z,97594.88
2023-04-07T00:27:02.381Z,97587.38
2023-04-07T00:29:30.442Z,97590.03
2023-04-07T00:31:58.454Z,97589.19
2023-04-07T00:34:26.468Z,97581.38
2023-04-07T00:36:54.001Z,97576.88
2023-04-07T00:39:22.005Z,97565.41
2023-04-07T00:41:49.517Z,97574.22
2023-04-07T00:44:17.231Z,97570.53
2023-04-07T00:46:46.964Z,97571.72
2023-04-07T00:49:17.709Z,97565.72
2023-04-07T00:51:46.619Z,97561.41
2023-04-07T00:54:14.830Z,97564.91
2023-04-07T00:56:43.687Z,97565.06
2023-04-07T00:59:11.615Z,97565.22
2023-04-07T01:02:09.953Z,97556.56
2023-04-07T01:05:09.046Z,97554.25
2023-04-07T01:08:15.486Z,97550.06
2023-04-07T01:10:53.119Z,97541.09
2023-04-07T01:13:57.491Z,97532.59
2023-04-07T01:16:52.469Z,97530.59
2023-04-07T01:19:46.213Z,97521.78
2023-04-07T01:22:22.112Z,97525.59
2023-04-07T01:25:22.138Z,97516.09
2023-04-07T01:28:01.893Z,97509.78
2023-04-07T01:30:34.662Z,97512.44
2023-04-07T01:33:04.064Z,97512.09
2023-04-07T01:35:35.895Z,97513.94
2023-04-07T01:38:04.978Z,97510.44
2023-04-07T01:40:35.225Z,97509.94
2023-04-07T01:43:03.560Z,97505.28
2023-04-07T01:45:34.348Z,97507.97
2023-04-07T01:48:02.957Z,97514.94
2023-04-07T01:50:31.348Z,97502.28
2023-04-07T01:52:59.487Z,97503.59
2023-04-07T01:55:28.297Z,97501.13
2023-04-07T01:58:07.198Z,97496.47
2023-04-07T02:00:36.724Z,97500.94
2023-04-07T02:03:22.979Z,97492.63
2023-04-07T02:05:57.557Z,97497.44
2023-04-07T02:08:31.891Z,97492.47
2023-04-07T02:11:03.610Z,97486.28
2023-04-07T02:13:35.340Z,97489.63
2023-04-07T02:16:02.961Z,97485.94
2023-04-07T02:18:32.375Z,97480.94
2023-04-07T02:21:02.788Z,97476.47
2023-04-07T02:23:30.632Z,97486.97
2023-04-07T02:25:58.442Z,97473.66
2023-04-07T02:28:26.022Z,97477.13
2023-04-07T02:30:53.535Z,97477.13
2023-04-07T02:33:21.229Z,97473.47
2023-04-07T02:35:48.812Z,97473.66
2023-04-07T02:38:16.368Z,97463.66
2023-04-07T02:40:43.869Z,97465.66
2023-04-07T02:43:11.461Z,97465.16
2023-04-07T02:45:38.995Z,97468.16
2023-04-07T02:48:06.602Z,97467.97
2023-04-07T02:50:34.176Z,97464.66
2023-04-07T02:53:01.694Z,97451.66
2023-04-07T02:55:29.212Z,97456.81
2023-04-07T02:57:56.838Z,97457.81
2023-04-07T03:00:38.790Z,97448.84
2023-04-07T03:03:12.569Z,97457.00
2023-04-07T03:05:43.463Z,97453.50
2023-04-07T03:08:13.168Z,97448.19
2023-04-07T03:10:41.032Z,97449.00
2023-04-07T03:13:09.818Z,97452.31
2023-04-07T03:15:38.285Z,97444.16
2023-04-07T03:18:06.990Z,97453.66
2023-04-07T03:20:35.598Z,97447.50
2023-04-07T03:23:09.098Z,97444.00
2023-04-07T03:25:37.152Z,97442.16
2023-04-07T03:28:05.114Z,97443.19
2023-04-07T03:30:35.957Z,97431.50
2023-04-07T03:33:03.851Z,97425.38
2023-04-07T03:35:32.425Z,97425.38
2023-04-07T03:37:59.977Z,97429.50
2023-04-07T03:40:27.707Z,97439.50
2023-04-07T03:42:55.290Z,97425.38
2023-04-07T03:45:23.064Z,97419.88
2023-04-07T03:47:54.259Z,97417.88
2023-04-07T03:50:22.905Z,97418.53
2023-04-07T03:53:11.413Z,97419.34
2023-04-07T03:55:40.006Z,97419.50
2023-04-07T03:58:15.409Z,97423.19
2023-04-07T04:00:45.570Z,97420.69
2023-04-07T04:03:13.561Z,97420.69
2023-04-07T04:05:50.999Z,97412.03
2023-04-07T04:08:23.043Z,97412.38
2023-04-07T04:10:51.209Z,97417.53
2023-04-07T04:13:19.586Z,97412.38
2023-04-07T04:15:47.894Z,97408.06
2023-04-07T04:18:18.029Z,97403.72
2023-04-07T04:20:45.946Z,97407.41
2023-04-07T04:23:13.470Z,97409.41
2023-04-07T04:25:42.456Z,97405.06
2023-04-07T04:28:12.504Z,97405.41
2023-04-07T04:30:41.080Z,97408.72
2023-04-07T04:33:10.338Z,97411.22
2023-04-07T04:35:46.351Z,97409.22
2023-04-07T04:38:17.438Z,97413.69
2023-04-07T04:40:52.782Z,97414.22
2023-04-07T04:43:26.061Z,97409.88
2023-04-07T04:45:53.947Z,97409.03
2023-04-07T04:48:25.112Z,97414.91
2023-04-07T04:50:52.624Z,97423.22
2023-04-07T04:53:21.650Z,97431.34
2023-04-07T04:56:00.928Z,97424.22
2023-04-07T04:58:40.281Z,97433.03
2023-04-07T05:01:08.682Z,97435.69
2023-04-07T05:03:41.786Z,97430.38
2023-04-07T05:06:21.606Z,97428.53
2023-04-07T05:08:51.497Z,97434.72
2023-04-07T05:11:23.028Z,97424.22
2023-04-07T05:13:53.739Z,97431.19
2023-04-07T05:16:21.543Z,97432.72
2023-04-07T05:18:49.051Z,97429.84
2023-04-07T05:21:17.544Z,97430.50
2023-04-07T05:23:45.469Z,97429.69
2023-04-07T05:26:13.661Z,97429.19
2023-04-07T05:28:43.674Z,97421.19
2023-04-07T05:31:17.093Z,97418.72
2023-04-07T05:33:47.604Z,97424.38
2023-04-07T05:36:16.435Z,97425.56
2023-04-07T05:38:44.156Z,97422.53
2023-04-07T05:41:15.515Z,97422.22
2023-04-07T05:43:43.050Z,97422.06
2023-04-07T05:46:10.871Z,97422.22
2023-04-07T05:48:47.337Z,97424.22
2023-04-07T05:51:15.672Z,97428.38
2023-04-07T05:53:44.015Z,97432.06
2023-04-07T05:56:11.754Z,97431.03
2023-04-07T05:58:44.501Z,97427.53
2023-04-07T06:01:13.278Z,97426.88
2023-04-07T06:03:41.176Z,97438.53
2023-04-07T06:06:15.943Z,97432.53
2023-04-07T06:08:43.585Z,97436.22
2023-04-07T06:11:13.074Z,97431.22
2023-04-07T06:13:40.866Z,97432.03
2023-04-07T06:16:09.587Z,97435.38
2023-04-07T06:18:38.426Z,97426.72
2023-04-07T06:21:07.482Z,97428.22
2023-04-07T06:23:35.068Z,97431.34
2023-04-07T06:26:02.761Z,97433.88
2023-04-07T06:28:30.851Z,97432.38
2023-04-07T06:31:00.053Z,97434.53
2023-04-07T06:33:28.530Z,97432.41
2023-04-07T06:35:57.510Z,97429.88
2023-04-07T06:38:25.261Z,97431.91
2023-04-07T06:40:52.777Z,97438.19
2023-04-07T06:43:20.305Z,97441.88
2023-04-07T06:45:56.506Z,97437.22
2023-04-07T06:48:24.168Z,97440.53
2023-04-07T06:50:52.159Z,97434.88
2023-04-07T06:53:19.646Z,97437.88
2023-04-07T06:55:47.144Z,97441.03
2023-04-07T06:58:14.681Z,97433.19
2023-04-07T07:00:42.176Z,97427.19
2023-04-07T07:03:09.795Z,97429.00
2023-04-07T07:05:37.573Z,97429.88
2023-04-07T07:08:05.063Z,97427.88
2023-04-07T07:10:32.560Z,97424.34
2023-04-07T07:13:00.246Z,97429.50
2023-04-07T07:15:27.741Z,97424.69
2023-04-07T07:17:55.442Z,97426.00
2023-04-07T07:20:23.534Z,97433.00
2023-04-07T07:22:51.027Z,97434.31
2023-04-07T07:25:18.565Z,97439.13
2023-04-07T07:27:46.157Z,97430.63
2023-04-07T07:30:13.845Z,97434.47
2023-04-07T07:32:41.420Z,97439.13
2023-04-07T07:35:09.025Z,97434.94
2023-04-07T07:37:36.544Z,97433.56
2023-04-07T07:40:04.386Z,97440.38
2023-04-07T07:42:32.158Z,97439.88
2023-04-07T07:44:59.836Z,97440.91
2023-04-07T07:47:27.550Z,97434.91
2023-04-07T07:49:55.210Z,97432.63
2023-04-07T07:52:22.787Z,97436.59
2023-04-07T07:54:51.299Z,97442.91
2023-04-07T07:57:18.892Z,97437.22
2023-04-07T07:59:46.622Z,97439.06
2023-04-07T08:02:14.284Z,97433.19
2023-04-07T08:04:41.931Z,97436.03
2023-04-07T08:07:09.516Z,97434.72
2023-04-07T08:09:37.045Z,97433.84
2023-04-07T08:12:04.823Z,97436.16
2023-04-07T08:14:32.424Z,97441.66
2023-04-07T08:16:59.917Z,97438.66
2023-04-07T08:19:27.439Z,97436.31
2023-04-07T08:21:54.916Z,97439.44
2023-04-07T08:24:22.430Z,97443.44
2023-04-07T08:26:49.908Z,97450.50
2023-04-07T08:29:17.405Z,97451.78
2023-04-07T08:31:44.925Z,97454.25
2023-04-07T08:34:13.633Z,97447.06
2023-04-07T08:36:43.550Z,97449.84
2023-04-07T08:39:11.562Z,97440.69
2023-04-07T08:41:44.580Z,97455.88
2023-04-07T08:44:14.996Z,97450.34
2023-04-07T08:46:44.680Z,97452.13
2023-04-07T08:49:14.048Z,97451.00
2023-04-07T08:51:48.248Z,97463.34
2023-04-07T08:54:18.932Z,97454.09
2023-04-07T08:56:46.713Z,97454.56
2023-04-07T08:59:18.188Z,97455.31
2023-04-07T09:01:47.239Z,97449.97
2023-04-07T09:04:15.069Z,97453.47
2023-04-07T09:06:43.575Z,97454.59
2023-04-07T09:09:11.415Z,97456.19
2023-04-07T09:11:41.004Z,97461.72
2023-04-07T09:14:08.561Z,97458.59
2023-04-07T09:16:36.414Z,97459.53
2023-04-07T09:19:04.078Z,97461.97
2023-04-07T09:21:52.262Z,97458.72
2023-04-07T09:24:28.490Z,97461.34
2023-04-07T09:27:13.963Z,97463.00
2023-04-07T09:29:45.259Z,97459.31
2023-04-07T09:32:14.080Z,97458.59
2023-04-07T09:34:41.997Z,97452.50
2023-04-07T09:37:22.836Z,97455.91
2023-04-07T09:39:53.774Z,97459.03
2023-04-07T09:42:21.579Z,97462.66
2023-04-07T09:44:49.196Z,97459.13
2023-04-07T09:47:17.944Z,97457.88
2023-04-07T09:49:53.993Z,97466.06
2023-04-07T09:52:46.425Z,97455.34
2023-04-07T09:55:15.911Z,97463.09
2023-04-07T09:57:45.336Z,97454.22
2023-04-07T10:00:13.819Z,97459.34
2023-04-07T10:02:43.217Z,97458.94
2023-04-07T10:05:11.259Z,97455.53
2023-04-07T10:07:40.899Z,97459.19
2023-04-07T10:10:10.428Z,97457.41
2023-04-07T10:12:38.451Z,97455.19
2023-04-07T10:15:07.221Z,97453.91
2023-04-07T10:17:37.896Z,97457.47
2023-04-07T10:20:09.902Z,97454.91
2023-04-07T10:22:41.315Z,97458.94
2023-04-07T10:25:12.570Z,97453.66
2023-04-07T10:27:56.400Z,97458.22
2023-04-07T10:30:34.492Z,97460.28
2023-04-07T10:33:02.407Z,97456.38
2023-04-07T10:36:07.343Z,97451.09
2023-04-07T10:38:34.953Z,97453.47
2023-04-07T10:41:41.447Z,97457.03
2023-04-07T10:44:40.699Z,97456.94
2023-04-07T10:47:08.585Z,97462.44
2023-04-07T10:49:36.752Z,97459.72
2023-04-07T10:52:13.081Z,97465.66
2023-04-07T10:54:41.419Z,97465.78
2023-04-07T10:57:14.359Z,97464.69
2023-04-07T11:00:12.115Z,97476.63
2023-04-07T11:02:41.298Z,97472.97
2023-04-07T11:05:19.442Z,97475.72
2023-04-07T11:07:51.073Z,97472.88
2023-04-07T11:10:19.474Z,97475.09
2023-04-07T11:13:08.223Z,97476.38
2023-04-07T11:15:40.414Z,97470.75
2023-04-07T11:18:18.444Z,97481.34
2023-04-07T11:20:56.281Z,97476.00
2023-04-07T11:23:25.431Z,97481.03
2023-04-07T11:26:03.613Z,97480.44
2023-04-07T11:28:32.135Z,97479.03
2023-04-07T11:31:00.249Z,97472.22
2023-04-07T11:33:31.637Z,97475.34
2023-04-07T11:36:02.141Z,97475.06
2023-04-07T11:38:36.443Z,97475.84
2023-04-07T11:41:13.429Z,97481.28
2023-04-07T11:43:41.953Z,97470.00
2023-04-07T11:46:16.595Z,97481.16
2023-04-07T11:48:45.781Z,97479.94
2023-04-07T11:51:17.612Z,97478.91
2023-04-07T11:53:46.150Z,97478.53
2023-04-07T11:56:17.411Z,97485.16
2023-04-07T11:58:53.227Z,97484.53
2023-04-07T12:01:24.621Z,97480.41
2023-04-07T12:04:04.366Z,97491.78
2023-04-07T12:06:38.508Z,97490.84
2023-04-07T12:09:06.298Z,97492.09
2023-04-07T12:11:35.857Z,97487.59
2023-04-07T12:14:05.113Z,97487.59
2023-04-07T12:16:37.542Z,97486.56
2023-04-07T12:19:05.360Z,97488.41
2023-04-07T12:21:33.193Z,97498.31
2023-04-07T12:24:01.032Z,97502.19
2023-04-07T12:26:29.854Z,97501.38
2023-04-07T12:28:58.831Z,97504.25
2023-04-07T12:31:26.370Z,97515.16
2023-04-07T12:33:53.906Z,97518.22
2023-04-07T12:36:21.402Z,97505.19
2023-04-07T12:38:48.886Z,97509.16
2023-04-07T12:41:16.608Z,97507.31
2023-04-07T12:43:44.999Z,97513.50
2023-04-07T12:46:14.368Z,97499.28
2023-04-07T12:48:41.944Z,97506.28
2023-04-07T12:51:09.625Z,97505.66
2023-04-07T12:53:37.309Z,97504.19
2023-04-07T12:56:04.974Z,97511.19
2023-04-07T12:58:33.129Z,97513.44
2023-04-07T13:01:00.758Z,97511.78
2023-04-07T13:03:28.604Z,97514.00
2023-04-07T13:05:56.348Z,97512.38
2023-04-07T13:08:23.857Z,97512.75
2023-04-07T13:10:51.418Z,97513.31
2023-04-07T13:13:18.929Z,97509.75
2023-04-07T13:15:46.450Z,97513.63
2023-04-07T13:18:14.218Z,97512.78
2023-04-07T13:20:41.747Z,97508.47
2023-04-07T13:23:10.243Z,97511.13
2023-04-07T13:25:38.193Z,97509.47
2023-04-07T13:28:05.866Z,97515.84
2023-04-07T13:30:33.498Z,97517.31
2023-04-07T13:33:01.389Z,97517.13
2023-04-07T13:35:30.945Z,97498.19
2023-04-07T13:37:58.465Z,97507.38
2023-04-07T13:40:25.974Z,97503.00
2023-04-07T13:42:53.523Z,97503.09
2023-04-07T13:45:20.989Z,97508.91
2023-04-07T13:47:48.581Z,97500.66
2023-04-07T13:50:16.287Z,97498.44
2023-04-07T13:52:43.899Z,97499.47
2023-04-07T13:55:11.953Z,97501.44
2023-04-07T13:57:39.458Z,97503.09
2023-04-07T14:00:07.893Z,97509.09
2023-04-07T14:02:36.546Z,97496.97
2023-04-07T14:05:04.561Z,97504.44
2023-04-07T14:07:32.075Z,97507.19
2023-04-07T14:09:59.613Z,97509.75
2023-04-07T14:12:27.377Z,97509.38
2023-04-07T14:14:54.924Z,97506.72
2023-04-07T14:17:22.605Z,97509.50
2023-04-07T14:19:50.106Z,97499.00
2023-04-07T14:22:18.238Z,97502.38
2023-04-07T14:24:45.804Z,97507.78
2023-04-07T14:27:14.119Z,97508.03
2023-04-07T14:29:41.661Z,97512.63
2023-04-07T14:32:09.218Z,97508.13
2023-04-07T14:34:36.715Z,97507.28
2023-04-07T14:37:04.235Z,97503.78
2023-04-07T14:39:31.788Z,97506.09
2023-04-07T14:42:00.570Z,97503.00
2023-04-07T14:44:29.063Z,97508.81
2023-04-07T14:46:56.603Z,97506.31
2023-04-07T14:49:25.843Z,97507.53
2023-04-07T14:51:53.415Z,97499.66
2023-04-07T14:54:21.605Z,97504.81
2023-04-07T14:56:49.527Z,97515.84
2023-04-07T14:59:17.167Z,97509.28
2023-04-07T15:01:44.690Z,97508.88
2023-04-07T15:04:13.431Z,97509.28
2023-04-07T15:06:42.741Z,97517.91
2023-04-07T15:09:10.274Z,97519.63
2023-04-07T15:11:37.799Z,97517.34
2023-04-07T15:14:06.573Z,97511.28
2023-04-07T15:16:34.280Z,97516.16
2023-04-07T15:19:01.918Z,97514.81
2023-04-07T15:21:29.704Z,97513.59
2023-04-07T15:23:57.247Z,97517.25
2023-04-07T15:26:24.814Z,97520.31
2023-04-07T15:28:52.295Z,97518.84
2023-04-07T15:31:21.370Z,97518.91
2023-04-07T15:33:49.038Z,97522.56
2023-04-07T15:36:16.648Z,97525.63
2023-04-07T15:38:44.160Z,97524.19
2023-04-07T15:41:16.411Z,97531.16
2023-04-07T15:43:44.005Z,97528.34
2023-04-07T15:46:11.576Z,97525.25
2023-04-07T15:48:39.090Z,97532.03
2023-04-07T15:51:06.594Z,97521.47
2023-04-07T15:53:34.546Z,97517.91
2023-04-07T15:56:02.059Z,97526.47
2023-04-07T15:58:31.104Z,97522.47
2023-04-07T16:00:59.706Z,97529.31
2023-04-07T16:03:28.215Z,97528.09
2023-04-07T16:05:56.008Z,97534.25
2023-04-07T16:08:23.662Z,97539.66
2023-04-07T16:10:51.189Z,97530.56
2023-04-07T16:13:18.678Z,97532.91
2023-04-07T16:15:46.208Z,97535.22
2023-04-07T16:18:13.723Z,97535.72
2023-04-07T16:20:41.196Z,97540.84
2023-04-07T16:23:09.376Z,97541.03
2023-04-07T16:25:36.874Z,97540.09
2023-04-07T16:28:04.499Z,97541.38
2023-04-07T16:30:32.096Z,97536.06
2023-04-07T16:33:00.513Z,97547.75
2023-04-07T16:35:29.151Z,97550.06
2023-04-07T16:38:01.430Z,97556.13
2023-04-07T16:40:28.901Z,97557.59
2023-04-07T16:42:56.392Z,97559.78
2023-04-07T16:45:23.861Z,97567.63
2023-04-07T16:47:51.523Z,97566.97
2023-04-07T16:50:19.142Z,97567.38
2023-04-07T16:52:47.648Z,97570.16
2023-04-07T16:55:15.162Z,97577.06
2023-04-07T16:57:42.736Z,97571.00
2023-04-07T17:00:11.001Z,97585.13
2023-04-07T17:02:38.618Z,97584.88
2023-04-07T17:05:06.941Z,97583.19
2023-04-07T17:07:34.432Z,97590.50
2023-04-07T17:10:02.081Z,97588.38
2023-04-07T17:12:29.732Z,97597.53
2023-04-07T17:14:57.212Z,97600.22
2023-04-07T17:17:24.898Z,97609.25
2023-04-07T17:19:52.472Z,97614.59
2023-04-07T17:22:20.031Z,97619.06
2023-04-07T17:24:47.840Z,97613.34
2023-04-07T17:27:15.465Z,97623.19
2023-04-07T17:29:42.939Z,97626.22
2023-04-07T17:32:10.432Z,97630.63
2023-04-07T17:34:37.966Z,97633.06
2023-04-07T17:37:05.638Z,97628.53
2023-04-07T17:39:33.174Z,97629.78
2023-04-07T17:42:00.733Z,97631.00
2023-04-07T17:44:28.244Z,97637.03
2023-04-07T17:46:55.819Z,97641.03
2023-04-07T17:49:24.454Z,97645.22
2023-04-07T17:51:51.947Z,97649.59
2023-04-07T17:54:19.736Z,97647.31
2023-04-07T17:56:47.202Z,97654.19
2023-04-07T17:59:14.697Z,97661.88
2023-04-07T18:01:42.639Z,97663.13
2023-04-07T18:04:10.326Z,97669.63
2023-04-07T18:06:37.829Z,97670.06
2023-04-07T18:09:05.330Z,97675.75
2023-04-07T18:11:32.832Z,97688.50
2023-04-07T18:14:00.774Z,97679.44
2023-04-07T18:16:28.357Z,97689.16
2023-04-07T18:18:56.735Z,97687.66
2023-04-07T18:21:24.224Z,97692.84
2023-04-07T18:23:51.728Z,97698.03
2023-04-07T18:26:19.197Z,97696.19
2023-04-07T18:28:46.701Z,97701.53
2023-04-07T18:31:15.217Z,97707.50
2023-04-07T18:33:42.719Z,97710.38
2023-04-07T18:36:11.698Z,97712.72
2023-04-07T18:38:39.225Z,97716.75
2023-04-07T18:41:07.260Z,97720.09
2023-04-07T18:43:35.227Z,97725.59
2023-04-07T18:46:03.002Z,97733.75
2023-04-07T18:48:30.586Z,97737.91
2023-04-07T18:50:58.080Z,97733.63
2023-04-07T18:53:25.811Z,97736.13
2023-04-07T18:55:53.382Z,97738.13
2023-04-07T18:58:21.181Z,97748.97
2023-04-07T19:00:50.131Z,97750.28
2023-04-07T19:03:17.824Z,97756.44
2023-04-07T19:05:47.504Z,97756.78
2023-04-07T19:08:16.227Z,97758.94
2023-04-07T19:10:43.948Z,97758.78
2023-04-07T19:13:11.449Z,97757.47
2023-04-07T19:15:40.607Z,97756.47
2023-04-07T19:18:08.317Z,97760.50
2023-04-07T19:20:36.165Z,97760.13
2023-04-07T19:23:03.705Z,97763.31
2023-04-07T19:25:31.489Z,97762.81
2023-04-07T19:27:59.175Z,97767.00
2023-04-07T19:30:27.074Z,97768.34
2023-04-07T19:32:55.157Z,97769.84
2023-04-07T19:35:22.760Z,97766.31
2023-04-07T19:37:51.881Z,97776.69
2023-04-07T19:40:19.660Z,97777.69
2023-04-07T19:42:47.175Z,97774.38
2023-04-07T19:45:14.709Z,97774.88
2023-04-07T19:47:43.385Z,97777.88
2023-04-07T19:50:11.782Z,97783.22
2023-04-07T19:52:39.322Z,97783.06
2023-04-07T19:55:09.558Z,97784.88
2023-04-07T19:57:40.172Z,97787.72
2023-04-07T20:00:09.039Z,97786.75
2023-04-07T20:02:37.263Z,97788.38
2023-04-07T20:05:05.490Z,97785.69
2023-04-07T20:07:33.561Z,97795.69
2023-04-07T20:10:01.287Z,97799.03
2023-04-07T20:12:28.852Z,97795.34
2023-04-07T20:14:56.397Z,97802.69
2023-04-07T20:17:23.900Z,97795.69
2023-04-07T20:19:54.895Z,97798.34
2023-04-07T20:22:22.825Z,97802.31
2023-04-07T20:24:50.393Z,97800.53
2023-04-07T20:27:18.340Z,97811.00
2023-04-07T20:29:45.835Z,97796.84
2023-04-07T20:32:13.329Z,97807.00
2023-04-07T20:34:43.050Z,97802.84
2023-04-07T20:37:10.623Z,97803.66
2023-04-07T20:39:38.350Z,97806.50
2023-04-07T20:42:05.855Z,97808.31
2023-04-07T20:44:33.337Z,97811.00
2023-04-07T20:47:11.400Z,97812.66
2023-04-07T20:49:41.002Z,97814.84
2023-04-07T20:52:08.932Z,97817.50
2023-04-07T20:54:36.506Z,97812.84
2023-04-07T20:57:04.018Z,97825.03
2023-04-07T20:59:32.555Z,97820.84
2023-04-07T21:02:00.196Z,97812.19
2023-04-07T21:04:28.334Z,97821.88
2023-04-07T21:06:55.861Z,97811.03
2023-04-07T21:09:23.328Z,97815.69
2023-04-07T21:11:50.919Z,97813.50
2023-04-07T21:14:18.397Z,97819.19
2023-04-07T21:16:45.889Z,97822.69
2023-04-07T21:19:13.353Z,97818.16
2023-04-07T21:21:41.067Z,97826.84
2023-04-07T21:24:08.600Z,97818.84
2023-04-07T21:26:36.104Z,97824.34
2023-04-07T21:29:03.684Z,97822.00
2023-04-07T21:31:32.360Z,97823.50
2023-04-07T21:34:00.023Z,97828.16
2023-04-07T21:36:27.684Z,97822.31
2023-04-07T21:38:55.214Z,97827.69
2023-04-07T21:41:22.707Z,97827.03
2023-04-07T21:43:50.254Z,97833.34
2023-04-07T21:46:17.907Z,97828.84
2023-04-07T21:48:45.656Z,97829.34
2023-04-07T21:51:13.143Z,97826.69
2023-04-07T21:53:40.877Z,97835.56
2023-04-07T21:56:09.302Z,97831.19
2023-04-07T21:58:37.377Z,97829.53
2023-04-07T22:01:04.957Z,97826.03
2023-04-07T22:03:32.694Z,97829.34
2023-04-07T22:06:01.031Z,97823.88
2023-04-07T22:08:28.583Z,97832.41
2023-04-07T22:10:56.685Z,97825.34
2023-04-07T22:13:24.707Z,97827.69
2023-04-07T22:15:52.275Z,97825.03
2023-04-07T22:18:21.439Z,97826.84
2023-04-07T22:20:49.606Z,97833.50
2023-04-07T22:23:17.134Z,97831.66
2023-04-07T22:25:44.643Z,97828.47
2023-04-07T22:28:12.257Z,97835.13
2023-04-07T22:30:39.722Z,97835.13
2023-04-07T22:33:08.989Z,97831.47
2023-04-07T22:35:38.301Z,97834.28
2023-04-07T22:38:06.073Z,97844.59
2023-04-07T22:40:33.562Z,97838.28
2023-04-07T22:43:01.364Z,97843.78
2023-04-07T22:45:29.218Z,97838.97
2023-04-07T22:47:56.809Z,97840.09
2023-04-07T22:50:24.366Z,97850.75
2023-04-07T22:52:51.849Z,97847.09
2023-04-07T22:55:19.739Z,97847.63
2023-04-07T22:57:47.434Z,97841.13
2023-04-07T23:00:15.480Z,97846.44
2023-04-07T23:02:43.210Z,97849.28
2023-04-07T23:05:11.089Z,97848.13
2023-04-07T23:07:38.688Z,97851.63
2023-04-07T23:10:07.925Z,97851.97
2023-04-07T23:12:36.092Z,97849.47
2023-04-07T23:15:04.160Z,97858.97
2023-04-07T23:17:31.795Z,97852.66
2023-04-07T23:19:59.272Z,97855.13
2023-04-07T23:22:26.998Z,97863.31
2023-04-07T23:24:54.822Z,97856.97
2023-04-07T23:27:22.346Z,97868.66
2023-04-07T23:29:51.617Z,97872.16
2023-04-07T23:32:19.140Z,97874.00
2023-04-07T23:34:46.643Z,97878.47
2023-04-07T23:37:14.165Z,97878.47
2023-04-07T23:39:41.671Z,97878.00
2023-04-07T23:42:09.239Z,97881.50
2023-04-07T23:44:36.820Z,97880.84
2023-04-07T23:47:04.337Z,97884.34
2023-04-07T23:49:32.039Z,97882.53
2023-04-07T23:51:59.563Z,97876.03
2023-04-07T23:54:27.136Z,97882.84
2023-04-07T23:56:54.672Z,97884.84
2023-04-07T23:59:22.134Z,97876.53
